Time;durP1;ratioP1;P1;durP2;ratioP2;P2;SDS_P1;SDS_P2;PMS_P1;PMS_P2;Temp;Humidity;BMP_temperature;BMP_pressure;BME280_temperature;BME280_humidity;BME280_pressure;Samples;Min_cycle;Max_cycle;Signal;HPM_P1;HPM_P2
2022/10/28 00:01:24;;;;;;;45.00;41.10;;;;;;;7.50;100.00;99030.23;105522;1307;22529;-83
2022/10/28 00:03:55;;;;;;;43.50;39.50;;;;;;;7.52;100.00;99028.52;106181;1304;22516;-82
2022/10/28 00:06:30;;;;;;;40.90;37.30;;;;;;;7.54;100.00;99024.80;105609;1306;22988;-82
2022/10/28 00:08:59;;;;;;;41.30;37.50;;;;;;;7.55;100.00;99023.20;103546;1306;22464;-82
2022/10/28 00:11:56;;;;;;;41.90;38.10;;;;;;;7.55;100.00;99017.71;103679;1299;24234;-81
2022/10/28 00:14:24;;;;;;;39.90;36.30;;;;;;;7.54;100.00;99016.16;103597;1307;22543;-84
2022/10/28 00:16:52;;;;;;;46.00;42.00;;;;;;;7.43;100.00;99014.59;103498;1303;23215;-83
2022/10/28 00:19:20;;;;;;;47.30;43.30;;;;;;;7.37;100.00;99015.31;103521;1307;24230;-83
2022/10/28 00:21:48;;;;;;;46.90;42.90;;;;;;;7.33;100.00;99012.95;103657;1307;22925;-83
2022/10/28 00:24:16;;;;;;;42.60;39.00;;;;;;;7.28;100.00;99014.36;103533;1302;22489;-82
2022/10/28 00:26:45;;;;;;;47.60;43.60;;;;;;;7.25;100.00;99011.05;103218;1301;22482;-82
2022/10/28 00:29:16;;;;;;;49.00;44.20;;;;;;;7.24;100.00;99007.88;103651;1306;22480;-82
2022/10/28 00:31:45;;;;;;;44.20;40.20;;;;;;;7.22;100.00;99005.11;103372;1307;23628;-81
2022/10/28 00:34:17;;;;;;;44.50;40.50;;;;;;;7.26;100.00;99002.42;103332;1307;22465;-82
2022/10/28 00:36:46;;;;;;;45.80;41.70;;;;;;;7.24;100.00;99003.54;103232;1307;22473;-80
2022/10/28 00:39:20;;;;;;;54.90;50.20;;;;;;;7.18;100.00;99000.08;103674;1307;22467;-81
2022/10/28 00:41:54;;;;;;;47.50;42.90;;;;;;;7.16;100.00;98998.65;103604;1307;22505;-81
2022/10/28 00:44:55;;;;;;;54.00;49.20;;;;;;;7.25;100.00;98996.14;103523;1306;22498;-81
2022/10/28 00:47:42;;;;;;;36.60;33.30;;;;;;;7.44;100.00;98992.49;103355;1307;22642;-81
2022/10/28 00:50:25;;;;;;;36.40;33.00;;;;;;;7.56;100.00;98985.22;103568;1284;22457;-81
2022/10/28 00:53:08;;;;;;;35.90;32.80;;;;;;;7.59;100.00;98985.36;103614;1306;22513;-81
2022/10/28 00:55:36;;;;;;;33.90;30.90;;;;;;;7.60;100.00;98981.90;103378;1307;22474;-81
2022/10/28 00:58:07;;;;;;;32.40;29.30;;;;;;;7.66;100.00;98978.47;103555;1302;22735;-81
2022/10/28 01:00:35;;;;;;;36.60;33.30;;;;;;;7.73;100.00;98972.42;103490;1307;23900;-80
2022/10/28 01:03:03;;;;;;;38.50;34.90;;;;;;;7.78;100.00;98969.56;103464;1307;24246;-81
2022/10/28 01:05:35;;;;;;;33.90;30.70;;;;;;;7.71;100.00;98968.75;103542;1307;25268;-81
2022/10/28 01:08:03;;;;;;;33.60;30.30;;;;;;;7.58;100.00;98973.02;103652;1307;24294;-81
2022/10/28 01:11:14;;;;;;;33.10;29.80;;;;;;;7.55;100.00;98969.65;103572;1307;22620;-82
2022/10/28 01:14:12;;;;;;;30.20;27.40;;;;;;;7.52;100.00;98969.85;103531;1307;22474;-82
2022/10/28 01:17:16;;;;;;;30.60;27.70;;;;;;;7.51;100.00;98965.98;103728;1307;24286;-82
2022/10/28 01:20:08;;;;;;;33.80;30.60;;;;;;;7.51;100.00;98963.45;102850;1300;25297;-80
2022/10/28 01:22:48;;;;;;;36.80;33.40;;;;;;;7.55;100.00;98960.42;102714;1294;22475;-81
2022/10/28 01:25:41;;;;;;;32.10;29.10;;;;;;;7.55;100.00;98957.38;102699;1313;22489;-81
2022/10/28 01:28:17;;;;;;;32.40;29.40;;;;;;;7.50;100.00;98954.01;103061;1313;22571;-80
2022/10/28 01:31:07;;;;;;;31.30;28.50;;;;;;;7.46;100.00;98948.59;103041;1314;24458;-81
2022/10/28 01:33:46;;;;;;;28.70;25.90;;;;;;;7.43;100.00;98949.48;102801;1313;22551;-81
2022/10/28 01:36:21;;;;;;;32.00;28.90;;;;;;;7.39;100.00;98947.18;102673;1315;22481;-81
2022/10/28 01:38:53;;;;;;;34.30;31.10;;;;;;;7.29;100.00;98945.57;102709;1294;25263;-80
2022/10/28 01:41:29;;;;;;;36.60;33.20;;;;;;;7.25;100.00;98948.84;103118;1313;22545;-81
2022/10/28 01:44:08;;;;;;;52.50;47.90;;;;;;;7.27;100.00;98945.45;103159;1314;25290;-82
2022/10/28 01:46:44;;;;;;;28.20;25.60;;;;;;;7.31;100.00;98949.19;103146;1313;25386;-81
2022/10/28 01:49:25;;;;;;;34.40;31.50;;;;;;;7.21;100.00;98942.96;103023;1314;22478;-81
2022/10/28 01:51:57;;;;;;;33.50;30.20;;;;;;;7.18;100.00;98945.86;102751;1314;22497;-83
2022/10/28 01:54:30;;;;;;;38.70;35.30;;;;;;;7.21;100.00;98946.02;102812;1303;24212;-79
2022/10/28 01:57:01;;;;;;;34.30;31.10;;;;;;;7.33;100.00;98944.59;103199;1307;22476;-82
2022/10/28 01:59:30;;;;;;;41.30;37.40;;;;;;;7.44;100.00;98943.05;103346;1307;24417;-82
2022/10/28 02:01:58;;;;;;;47.80;43.50;;;;;;;7.58;100.00;98933.65;103574;1307;22747;-81
2022/10/28 02:04:27;;;;;;;38.30;34.50;;;;;;;7.68;100.00;98926.50;103539;1307;23936;-83
2022/10/28 02:06:58;;;;;;;43.30;39.40;;;;;;;7.75;100.00;98927.48;103715;1307;22737;-81
2022/10/28 02:10:04;;;;;;;42.80;38.80;;;;;;;7.70;100.00;98921.25;103758;1306;22499;-80
2022/10/28 02:12:36;;;;;;;36.80;33.40;;;;;;;7.70;100.00;98918.63;103164;1291;23920;-81
2022/10/28 02:15:28;;;;;;;39.40;35.20;;;;;;;7.76;100.00;98916.38;103332;1306;22478;-81
2022/10/28 02:18:34;;;;;;;34.00;30.80;;;;;;;7.77;100.00;98914.45;103627;1301;22454;-82
2022/10/28 02:21:17;;;;;;;30.70;27.40;;;;;;;7.61;100.00;98914.08;103548;1307;22648;-82
2022/10/28 02:23:57;;;;;;;32.50;29.30;;;;;;;7.46;100.00;98914.65;103733;1307;22469;-82
2022/10/28 02:26:33;;;;;;;36.00;32.50;;;;;;;7.38;100.00;98915.21;103732;1307;24423;-82
2022/10/28 02:29:00;;;;;;;34.70;31.40;;;;;;;7.40;100.00;98917.48;103589;1307;22478;-83
2022/10/28 02:31:39;;;;;;;35.40;32.00;;;;;;;7.41;100.00;98916.80;103742;1299;22573;-82
2022/10/28 02:34:12;;;;;;;49.40;44.50;;;;;;;7.49;100.00;98909.36;103616;1307;22487;-82
2022/10/28 02:36:47;;;;;;;38.70;35.10;;;;;;;7.58;100.00;98906.66;103451;1300;25189;-82
2022/10/28 02:39:19;;;;;;;35.20;31.70;;;;;;;7.62;100.00;98903.48;103522;1310;24241;-81
2022/10/28 02:41:56;;;;;;;34.00;30.50;;;;;;;7.51;100.00;98904.55;103591;1307;23212;-82
2022/10/28 02:44:30;;;;;;;38.20;34.60;;;;;;;7.34;100.00;98899.72;103692;1307;24459;-79
2022/10/28 02:47:00;;;;;;;39.60;35.80;;;;;;;7.24;100.00;98899.05;103733;1307;22491;-81
2022/10/28 02:49:31;;;;;;;32.80;29.60;;;;;;;7.11;100.00;98898.72;103584;1307;22519;-81
2022/10/28 02:52:02;;;;;;;31.30;28.00;;;;;;;6.97;100.00;98900.13;103754;1300;22464;-81
2022/10/28 02:54:37;;;;;;;48.70;44.30;;;;;;;6.94;100.00;98896.94;103588;1310;24437;-81
2022/10/28 02:57:12;;;;;;;37.20;33.60;;;;;;;7.05;100.00;98892.17;103641;1293;22487;-82
2022/10/28 02:59:40;;;;;;;33.10;29.90;;;;;;;7.19;100.00;98893.45;103728;1307;26497;-82
2022/10/28 03:02:09;;;;;;;30.80;27.60;;;;;;;7.24;100.00;98888.90;103753;1285;24210;-82
2022/10/28 03:04:37;;;;;;;36.80;32.50;;;;;;;7.33;100.00;98887.39;103709;1307;22461;-82
2022/10/28 03:07:05;;;;;;;35.40;32.00;;;;;;;7.30;100.00;98894.64;103751;1285;25325;-82
2022/10/28 03:09:33;;;;;;;36.00;32.90;;;;;;;7.17;100.00;98894.35;103462;1307;22494;-82
2022/10/28 03:12:00;;;;;;;38.00;34.20;;;;;;;7.12;100.00;98892.73;103608;1307;22467;-81
2022/10/28 03:14:28;;;;;;;41.40;37.40;;;;;;;7.10;100.00;98889.55;103715;1307;22612;-83
2022/10/28 03:16:56;;;;;;;31.90;28.80;;;;;;;7.08;100.00;98893.61;103768;1307;25614;-83
2022/10/28 03:19:24;;;;;;;33.90;30.70;;;;;;;6.92;100.00;98898.99;103584;1307;22470;-82
2022/10/28 03:21:52;;;;;;;31.10;28.00;;;;;;;6.76;100.00;98899.17;103725;1307;22947;-83
2022/10/28 03:24:20;;;;;;;29.90;26.70;;;;;;;6.77;100.00;98894.42;103733;1291;22570;-81
2022/10/28 03:26:47;;;;;;;33.40;29.80;;;;;;;6.85;100.00;98888.03;103759;1307;24381;-83
2022/10/28 03:29:15;;;;;;;32.00;28.70;;;;;;;6.97;100.00;98885.18;103727;1306;22466;-82
2022/10/28 03:31:43;;;;;;;32.10;28.70;;;;;;;7.08;100.00;98883.31;103699;1307;23885;-82
2022/10/28 03:34:11;;;;;;;32.20;29.00;;;;;;;7.11;100.00;98880.13;103587;1307;22602;-83
2022/10/28 03:36:39;;;;;;;36.20;32.70;;;;;;;7.18;100.00;98878.77;103529;1306;22502;-81
2022/10/28 03:39:07;;;;;;;33.90;30.70;;;;;;;7.24;100.00;98880.05;103432;1307;22742;-81
2022/10/28 03:41:35;;;;;;;27.80;25.10;;;;;;;7.23;100.00;98880.38;103496;1310;24237;-82
2022/10/28 03:44:03;;;;;;;35.50;31.80;;;;;;;7.13;100.00;98878.60;103559;1307;25226;-82
2022/10/28 03:46:31;;;;;;;33.80;30.30;;;;;;;7.07;100.00;98868.46;103531;1307;25318;-82
2022/10/28 03:49:03;;;;;;;32.70;29.30;;;;;;;7.08;100.00;98864.23;103377;1297;22465;-82
2022/10/28 03:51:31;;;;;;;38.50;34.80;;;;;;;7.09;100.00;98863.33;103535;1307;24311;-81
2022/10/28 03:53:58;;;;;;;30.60;27.00;;;;;;;7.12;100.00;98861.38;103550;1306;25232;-82
2022/10/28 03:56:26;;;;;;;38.50;34.80;;;;;;;7.01;100.00;98859.40;103369;1310;24303;-83
2022/10/28 03:58:54;;;;;;;26.50;24.00;;;;;;;6.84;100.00;98859.73;103373;1295;22508;-82
2022/10/28 04:01:22;;;;;;;28.60;25.30;;;;;;;6.73;100.00;98864.27;103544;1307;24227;-82
2022/10/28 04:03:50;;;;;;;29.20;26.20;;;;;;;6.68;100.00;98865.50;103375;1309;22512;-83
2022/10/28 04:06:18;;;;;;;26.20;23.70;;;;;;;6.69;100.00;98869.42;103600;1307;22476;-82
2022/10/28 04:08:46;;;;;;;28.60;25.70;;;;;;;6.71;100.00;98868.10;103429;1307;24237;-83
2022/10/28 04:11:14;;;;;;;30.40;27.30;;;;;;;6.78;100.00;98868.23;103298;1297;22476;-82
2022/10/28 04:13:41;;;;;;;29.40;26.60;;;;;;;6.90;100.00;98862.90;103585;1307;24238;-82
2022/10/28 04:16:09;;;;;;;35.10;31.70;;;;;;;6.99;100.00;98861.84;103293;1307;22500;-82
2022/10/28 04:18:37;;;;;;;26.30;23.60;;;;;;;7.07;100.00;98862.52;103319;1307;24233;-83
2022/10/28 04:21:05;;;;;;;29.60;26.80;;;;;;;6.99;100.00;98860.02;103311;1307;22481;-82
2022/10/28 04:23:33;;;;;;;30.50;27.70;;;;;;;6.94;100.00;98859.64;103426;1310;22481;-83
2022/10/28 04:26:01;;;;;;;30.50;27.60;;;;;;;6.92;100.00;98859.30;103443;1310;22594;-82
2022/10/28 04:28:29;;;;;;;27.60;24.70;;;;;;;6.88;100.00;98854.52;103404;1304;22517;-83
2022/10/28 04:30:57;;;;;;;30.80;27.70;;;;;;;6.95;100.00;98856.85;103583;1306;24224;-83
2022/10/28 04:33:24;;;;;;;25.80;23.20;;;;;;;6.93;100.00;98859.52;103417;1310;22486;-82
2022/10/28 04:35:52;;;;;;;24.10;21.80;;;;;;;6.92;100.00;98855.01;103416;1310;22600;-82
2022/10/28 04:38:20;;;;;;;23.10;20.60;;;;;;;6.95;100.00;98855.05;103611;1307;25202;-82
2022/10/28 04:40:48;;;;;;;22.90;20.50;;;;;;;6.96;100.00;98854.30;103418;1306;22466;-82
2022/10/28 04:43:16;;;;;;;20.70;18.60;;;;;;;7.01;100.00;98853.34;103301;1307;25251;-82
2022/10/28 04:45:45;;;;;;;37.40;34.30;;;;;;;7.10;100.00;98854.08;103667;1307;24286;-81
2022/10/28 04:48:13;;;;;;;27.10;24.30;;;;;;;7.21;100.00;98855.31;103445;1307;22488;-82
2022/10/28 04:50:41;;;;;;;24.30;21.90;;;;;;;7.33;100.00;98854.72;103550;1307;24233;-82
2022/10/28 04:53:12;;;;;;;28.60;25.60;;;;;;;7.43;100.00;98855.41;103575;1307;24318;-83
2022/10/28 04:55:40;;;;;;;25.20;19.20;;;;;;;7.40;100.00;98853.30;103363;1310;25324;-84
2022/10/28 04:58:08;;;;;;;24.00;21.70;;;;;;;7.35;100.00;98854.75;103581;1283;22461;-83
2022/10/28 05:00:36;;;;;;;24.80;22.30;;;;;;;7.36;100.00;98859.24;103581;1285;25235;-84
2022/10/28 05:03:04;;;;;;;31.10;28.20;;;;;;;7.39;100.00;98855.15;103516;1307;22475;-82
2022/10/28 05:05:32;;;;;;;19.80;17.80;;;;;;;7.43;100.00;98847.67;103445;1304;25198;-83
2022/10/28 05:08:01;;;;;;;21.10;18.40;;;;;;;7.47;100.00;98839.14;103504;1307;22487;-82
2022/10/28 05:10:30;;;;;;;23.10;19.20;;;;;;;7.52;100.00;98837.21;103413;1308;22524;-82
2022/10/28 05:12:58;;;;;;;23.30;21.10;;;;;;;7.56;100.00;98842.44;103521;1307;22483;-82
2022/10/28 05:15:26;;;;;;;21.80;19.60;;;;;;;7.47;100.00;98851.63;103411;1297;23908;-82
2022/10/28 05:17:54;;;;;;;22.10;19.20;;;;;;;7.27;100.00;98852.21;103545;1307;23102;-82
2022/10/28 05:20:22;;;;;;;22.70;20.30;;;;;;;7.21;100.00;98854.23;103368;1309;24300;-82
2022/10/28 05:22:53;;;;;;;22.80;20.20;;;;;;;7.16;100.00;98853.60;103372;1307;22532;-81
2022/10/28 05:25:22;;;;;;;30.80;28.00;;;;;;;7.07;100.00;98853.34;103626;1307;25244;-82
2022/10/28 05:27:50;;;;;;;25.80;23.20;;;;;;;6.96;100.00;98848.52;103369;1293;22528;-83
2022/10/28 05:30:18;;;;;;;21.30;17.50;;;;;;;6.87;100.00;98857.50;103402;1307;24342;-81
2022/10/28 05:32:46;;;;;;;23.60;21.40;;;;;;;6.78;100.00;98847.77;103578;1291;22474;-81
2022/10/28 05:35:19;;;;;;;21.70;19.30;;;;;;;6.83;100.00;98845.59;103599;1307;25236;-81
2022/10/28 05:37:47;;;;;;;22.30;20.10;;;;;;;6.94;100.00;98841.90;103285;1307;22635;-81
2022/10/28 05:40:15;;;;;;;24.10;21.00;;;;;;;7.03;100.00;98838.34;103316;1292;24373;-81
2022/10/28 05:42:43;;;;;;;27.90;24.90;;;;;;;7.10;100.00;98832.84;103321;1307;24265;-82
2022/10/28 05:45:11;;;;;;;31.30;24.90;;;;;;;7.10;100.00;98837.08;103371;1291;25283;-83
2022/10/28 05:47:46;;;;;;;26.90;24.50;;;;;;;6.89;100.00;98837.86;103399;1307;22505;-80
2022/10/28 05:50:16;;;;;;;23.50;21.30;;;;;;;6.75;100.00;98843.13;103467;1291;24256;-80
2022/10/28 05:52:48;;;;;;;18.60;16.70;;;;;;;6.70;100.00;98842.55;103418;1301;22475;-81
2022/10/28 05:55:18;;;;;;;22.90;20.70;;;;;;;6.76;100.00;98836.83;103409;1291;25195;-80
2022/10/28 05:57:48;;;;;;;22.40;20.10;;;;;;;6.92;100.00;98836.41;103590;1307;24282;-80
2022/10/28 06:00:18;;;;;;;23.60;21.40;;;;;;;7.01;100.00;98837.79;103622;1307;22465;-80
2022/10/28 06:02:46;;;;;;;26.90;24.40;;;;;;;7.00;100.00;98842.11;105332;1307;22460;-79
2022/10/28 06:05:15;;;;;;;27.20;24.30;;;;;;;6.96;100.00;98842.03;104629;1307;25232;-80
2022/10/28 06:07:43;;;;;;;82.10;55.70;;;;;;;6.96;100.00;98845.52;104393;1296;22499;-81
2022/10/28 06:10:11;;;;;;;33.40;24.10;;;;;;;6.98;100.00;98838.83;103578;1291;22470;-80
2022/10/28 06:12:40;;;;;;;24.40;21.90;;;;;;;6.91;100.00;98841.11;103657;1305;22669;-81
2022/10/28 06:15:08;;;;;;;26.00;23.40;;;;;;;6.86;100.00;98841.91;103475;1307;22509;-82
2022/10/28 06:17:36;;;;;;;25.30;20.40;;;;;;;6.94;100.00;98845.33;103549;1307;22477;-82
2022/10/28 06:20:05;;;;;;;18.90;17.00;;;;;;;6.99;100.00;98848.44;103469;1307;22493;-81
2022/10/28 06:22:33;;;;;;;22.60;20.30;;;;;;;7.09;100.00;98847.36;103650;1304;23725;-83
2022/10/28 06:25:01;;;;;;;26.00;23.30;;;;;;;7.23;100.00;98845.57;103247;1299;25255;-82
2022/10/28 06:27:30;;;;;;;32.80;29.50;;;;;;;7.43;100.00;98846.23;103547;1307;22471;-81
2022/10/28 06:29:58;;;;;;;23.90;21.60;;;;;;;7.53;100.00;98845.52;103657;1285;27229;-81
2022/10/28 06:32:26;;;;;;;23.20;21.00;;;;;;;7.59;100.00;98844.50;103491;1305;22486;-81
2022/10/28 06:34:54;;;;;;;21.50;19.40;;;;;;;7.67;100.00;98850.46;103494;1310;23307;-80
2022/10/28 06:37:22;;;;;;;22.50;19.10;;;;;;;7.70;100.00;98859.49;103577;1307;23918;-81
2022/10/28 06:39:51;;;;;;;24.00;20.10;;;;;;;7.72;100.00;98857.05;103610;1307;25070;-80
2022/10/28 06:42:20;;;;;;;22.10;19.70;;;;;;;7.81;100.00;98861.63;103575;1307;22473;-81
2022/10/28 06:44:49;;;;;;;22.40;20.20;;;;;;;7.88;100.00;98860.02;103626;1307;22509;-80
2022/10/28 06:47:17;;;;;;;27.50;22.40;;;;;;;7.98;100.00;98861.90;103588;1297;23930;-82
2022/10/28 06:49:45;;;;;;;25.80;23.20;;;;;;;8.08;100.00;98860.95;103572;1307;22490;-80
2022/10/28 06:52:13;;;;;;;28.00;22.20;;;;;;;8.19;100.00;98861.34;103593;1307;24303;-80
2022/10/28 06:54:42;;;;;;;28.30;23.90;;;;;;;8.26;100.00;98866.02;103573;1291;22484;-82
2022/10/28 06:57:10;;;;;;;52.20;47.10;;;;;;;8.36;100.00;98866.84;103499;1310;25235;-82
2022/10/28 06:59:38;;;;;;;29.50;26.50;;;;;;;8.49;100.00;98867.13;103553;1300;22469;-82
2022/10/28 07:02:10;;;;;;;28.10;25.20;;;;;;;8.63;100.00;98868.65;103456;1311;22482;-80
2022/10/28 07:04:38;;;;;;;29.90;26.70;;;;;;;8.78;100.00;98869.77;103588;1294;25309;-80
2022/10/28 07:07:07;;;;;;;30.90;27.90;;;;;;;8.95;100.00;98875.92;103677;1292;24646;-82
2022/10/28 07:09:38;;;;;;;36.90;33.40;;;;;;;9.12;100.00;98867.97;103431;1307;24321;-81
2022/10/28 07:12:06;;;;;;;45.90;38.40;;;;;;;9.27;100.00;98869.13;103630;1291;25197;-81
2022/10/28 07:14:34;;;;;;;38.00;34.60;;;;;;;9.41;100.00;98873.98;103723;1307;22487;-82
2022/10/28 07:17:03;;;;;;;36.10;32.60;;;;;;;9.56;100.00;98871.47;104048;1307;22461;-82
2022/10/28 07:19:31;;;;;;;34.30;31.10;;;;;;;9.68;100.00;98871.42;103762;1307;22606;-82
2022/10/28 07:21:59;;;;;;;30.00;27.00;;;;;;;9.80;100.00;98873.53;103645;1300;25417;-81
2022/10/28 07:24:27;;;;;;;34.90;31.20;;;;;;;9.90;100.00;98885.85;103731;1307;24406;-81
2022/10/28 07:27:00;;;;;;;28.60;25.60;;;;;;;9.99;100.00;98887.46;103548;1306;22473;-79
2022/10/28 07:29:27;;;;;;;25.70;23.00;;;;;;;10.07;100.00;98885.45;103802;1292;25316;-79
2022/10/28 07:31:55;;;;;;;26.00;23.20;;;;;;;10.14;100.00;98888.91;103806;1283;24299;-80
2022/10/28 07:34:23;;;;;;;26.00;23.50;;;;;;;10.22;100.00;98888.19;103686;1313;23022;-80
2022/10/28 07:36:55;;;;;;;28.50;25.40;;;;;;;10.29;100.00;98888.27;103318;1291;23883;-81
2022/10/28 07:39:23;;;;;;;28.10;24.70;;;;;;;10.36;100.00;98888.73;103906;1292;25288;-83
2022/10/28 07:41:51;;;;;;;36.20;23.90;;;;;;;10.42;100.00;98890.51;103935;1313;22424;-84
2022/10/28 07:44:19;;;;;;;29.80;22.30;;;;;;;10.48;100.00;98887.05;103700;1313;22528;-83
2022/10/28 07:46:47;;;;;;;32.80;24.40;;;;;;;10.53;100.00;98891.02;103943;1298;22480;-82
2022/10/28 07:49:16;;;;;;;30.10;23.20;;;;;;;10.57;100.00;98892.14;104030;1313;22475;-83
2022/10/28 07:51:44;;;;;;;29.10;23.00;;;;;;;10.63;100.00;98892.27;103852;1291;22541;-82
2022/10/28 07:54:12;;;;;;;25.50;22.30;;;;;;;10.71;100.00;98890.31;104141;1313;23301;-86
2022/10/28 07:56:40;;;;;;;30.20;25.00;;;;;;;10.76;100.00;98887.98;104098;1294;26483;-82
2022/10/28 07:59:07;;;;;;;25.80;23.30;;;;;;;10.81;100.00;98886.60;103928;1301;25367;-82
2022/10/28 08:01:35;;;;;;;25.20;22.70;;;;;;;10.88;100.00;98887.11;104072;1307;23698;-83
2022/10/28 08:04:04;;;;;;;26.70;24.00;;;;;;;11.00;100.00;98886.25;103987;1313;24762;-82
2022/10/28 08:06:34;;;;;;;23.80;21.50;;;;;;;11.08;100.00;98885.29;103769;1297;25258;-83
2022/10/28 08:09:02;;;;;;;26.10;23.60;;;;;;;11.15;100.00;98884.93;103773;1310;22621;-82
2022/10/28 08:11:31;;;;;;;25.70;23.30;;;;;;;11.20;100.00;98876.93;103899;1306;22470;-82
2022/10/28 08:14:01;;;;;;;26.30;23.60;;;;;;;11.24;100.00;98877.34;103850;1309;22482;-83
2022/10/28 08:16:30;;;;;;;27.00;24.50;;;;;;;11.31;100.00;98878.48;104160;1307;22490;-83
2022/10/28 08:18:58;;;;;;;27.30;24.50;;;;;;;11.36;100.00;98873.97;104065;1307;22466;-85
2022/10/28 08:21:29;;;;;;;25.00;22.50;;;;;;;11.48;100.00;98870.82;103931;1310;24824;-83
2022/10/28 08:23:57;;;;;;;28.10;25.30;;;;;;;11.56;100.00;98865.73;103692;1307;25200;-83
2022/10/28 08:26:25;;;;;;;29.30;26.60;;;;;;;11.70;100.00;98867.63;104052;1307;22487;-85
2022/10/28 08:28:53;;;;;;;30.30;27.10;;;;;;;11.80;100.00;98871.39;104015;1313;23203;-86
2022/10/28 08:31:21;;;;;;;26.90;24.00;;;;;;;11.89;100.00;98872.58;104222;1307;23206;-86
2022/10/28 08:33:49;;;;;;;32.50;23.00;;;;;;;11.99;100.00;98869.04;105013;1307;23146;-86
2022/10/28 08:36:17;;;;;;;25.60;22.10;;;;;;;12.09;100.00;98868.89;104526;1306;22466;-88
2022/10/28 08:38:46;;;;;;;22.30;19.90;;;;;;;12.17;100.00;98869.04;104061;1307;22420;-85
2022/10/28 08:41:36;;;;;;;22.20;20.10;;;;;;;12.23;100.00;98869.98;104024;1306;22513;-85
2022/10/28 08:44:29;;;;;;;20.90;18.40;;;;;;;12.32;100.00;98867.54;104737;1307;22888;-83
2022/10/28 08:47:09;;;;;;;20.50;17.20;;;;;;;12.42;100.00;98865.80;105093;1295;23858;-84
2022/10/28 08:49:40;;;;;;;17.90;16.10;;;;;;;12.50;100.00;98863.28;104971;1295;22536;-82
2022/10/28 08:52:23;;;;;;;18.40;16.40;;;;;;;12.61;100.00;98865.92;104991;1307;22204;-84
2022/10/28 08:54:58;;;;;;;21.40;19.20;;;;;;;12.70;100.00;98868.09;105255;1309;22594;-84
2022/10/28 08:57:35;;;;;;;20.40;18.50;;;;;;;12.79;100.00;98869.10;105406;1307;22472;-85
2022/10/28 09:00:12;;;;;;;20.80;17.20;;;;;;;12.91;100.00;98862.85;105225;1309;22506;-86
2022/10/28 09:03:07;;;;;;;18.50;16.50;;;;;;;13.06;100.00;98861.78;105333;1307;22523;-86
2022/10/28 09:05:35;;;;;;;18.90;16.90;;;;;;;13.18;100.00;98857.30;105869;1286;22592;-84
2022/10/28 09:08:04;;;;;;;21.40;17.20;;;;;;;13.29;100.00;98855.92;106026;1307;23927;-85
2022/10/28 09:11:05;;;;;;;17.80;16.00;;;;;;;13.38;100.00;98849.40;105673;1306;25473;-86
2022/10/28 09:13:48;;;;;;;21.50;18.00;;;;;;;13.56;100.00;98848.91;105674;1301;23349;-86
2022/10/28 09:16:27;;;;;;;19.60;16.10;;;;;;;13.72;100.00;98848.77;105248;1295;22622;-84
2022/10/28 09:18:58;;;;;;;20.60;18.20;;;;;;;13.87;100.00;98841.76;105090;1305;24410;-84
2022/10/28 09:21:37;;;;;;;18.60;15.90;;;;;;;13.99;100.00;98846.20;104745;1301;22478;-85
2022/10/28 09:24:12;;;;;;;17.00;15.20;;;;;;;14.14;100.00;98846.20;104538;1307;24336;-82
2022/10/28 09:27:03;;;;;;;17.50;13.50;;;;;;;14.29;99.76;98849.73;104019;1294;25439;-82
2022/10/28 09:29:50;;;;;;;16.20;14.50;;;;;;;14.44;99.67;98851.35;104468;1307;22478;-85
2022/10/28 09:32:33;;;;;;;17.80;16.00;;;;;;;14.55;98.48;98851.05;104965;1307;22483;-84
2022/10/28 09:35:19;;;;;;;18.10;14.70;;;;;;;14.64;97.23;98849.04;104820;1307;22783;-84
2022/10/28 09:38:05;;;;;;;18.00;13.70;;;;;;;14.74;96.54;98847.16;104116;1310;22511;-85
2022/10/28 09:40:38;;;;;;;19.60;14.60;;;;;;;14.84;93.69;98846.23;104253;1307;25249;-82
2022/10/28 09:43:17;;;;;;;15.70;11.70;;;;;;;14.85;92.92;98842.90;103800;1310;23356;-83
2022/10/28 09:45:48;;;;;;;21.40;13.70;;;;;;;14.89;94.55;98837.02;103864;1301;22482;-80
2022/10/28 09:48:22;;;;;;;15.20;13.70;;;;;;;14.97;93.98;98836.18;103850;1299;25292;-84
2022/10/28 09:50:51;;;;;;;;;;;;;;;15.03;92.47;98842.85;103785;1294;22470;-80
2022/10/28 09:53:28;;;;;;;19.00;12.80;;;;;;;15.09;92.85;98842.51;103496;1307;22464;-82
2022/10/28 09:56:05;;;;;;;16.70;13.10;;;;;;;15.17;92.29;98836.17;103727;1307;22519;-83
2022/10/28 09:59:01;;;;;;;21.30;17.50;;;;;;;15.21;92.46;98838.97;103974;1307;22479;-83
2022/10/28 10:01:33;;;;;;;24.90;15.80;;;;;;;15.34;93.05;98843.95;103829;1307;23104;-82
2022/10/28 10:04:11;;;;;;;18.70;14.10;;;;;;;15.43;91.50;98845.75;103828;1307;24237;-83
2022/10/28 10:06:41;;;;;;;14.60;12.80;;;;;;;15.52;89.17;98846.41;103915;1307;25280;-81
2022/10/28 10:09:22;;;;;;;18.80;13.80;;;;;;;15.59;88.66;98849.81;103825;1307;25379;-83
2022/10/28 10:11:58;;;;;;;46.40;20.60;;;;;;;15.71;88.89;98846.31;103837;1307;24244;-81
2022/10/28 10:14:47;;;;;;;20.40;13.30;;;;;;;15.84;86.43;98842.95;104002;1306;22465;-81
2022/10/28 10:17:19;;;;;;;15.80;12.80;;;;;;;15.89;85.69;98841.07;103898;1291;25197;-82
2022/10/28 10:20:13;;;;;;;16.10;11.90;;;;;;;15.95;85.81;98839.95;103882;1298;25204;-84
2022/10/28 10:22:43;;;;;;;15.10;12.70;;;;;;;16.08;86.49;98840.85;104026;1307;24352;-84
2022/10/28 10:25:29;;;;;;;21.60;12.00;;;;;;;16.21;84.91;98844.41;104048;1307;25293;-83
2022/10/28 10:28:18;;;;;;;16.20;13.40;;;;;;;16.30;85.85;98834.09;103922;1307;22471;-83
2022/10/28 10:30:55;;;;;;;19.40;13.90;;;;;;;16.47;85.58;98831.73;104134;1306;23886;-84
2022/10/28 10:33:39;;;;;;;16.90;13.00;;;;;;;16.58;85.03;98837.00;104163;1307;23263;-86
2022/10/28 10:36:10;;;;;;;14.60;12.20;;;;;;;16.71;86.03;98832.25;103998;1307;24381;-85
2022/10/28 10:38:47;;;;;;;18.70;13.20;;;;;;;16.80;83.48;98839.02;103896;1307;23817;-86
2022/10/28 10:41:41;;;;;;;17.90;14.30;;;;;;;16.88;85.38;98831.62;103657;1307;22521;-86
2022/10/28 10:44:21;;;;;;;17.00;13.90;;;;;;;17.07;85.37;98827.29;103704;1307;22478;-84
2022/10/28 10:46:58;;;;;;;17.20;14.40;;;;;;;17.23;83.82;98827.36;103723;1307;25384;-85
2022/10/28 10:49:34;;;;;;;16.10;12.60;;;;;;;17.39;83.35;98824.42;103789;1307;24244;-86
2022/10/28 10:52:09;;;;;;;17.30;14.70;;;;;;;17.50;80.92;98828.75;103647;1307;24244;-85
2022/10/28 10:54:37;;;;;;;17.00;12.10;;;;;;;17.58;80.29;98827.55;103686;1297;25338;-85
2022/10/28 10:57:21;;;;;;;16.50;12.20;;;;;;;17.61;78.34;98825.80;103553;1307;24324;-85
2022/10/28 10:59:52;;;;;;;20.00;13.10;;;;;;;17.68;78.25;98823.30;103882;1307;23333;-83
2022/10/28 11:02:28;;;;;;;16.60;11.60;;;;;;;17.88;79.57;98822.84;104168;1280;22476;-84
2022/10/28 11:05:00;;;;;;;15.20;11.20;;;;;;;18.12;76.67;98825.77;104499;1307;22480;-86
2022/10/28 11:07:31;;;;;;;16.00;11.30;;;;;;;18.32;77.66;98820.95;104307;1304;22481;-86
2022/10/28 11:10:00;;;;;;;15.20;12.10;;;;;;;18.49;75.79;98822.84;104245;1307;22476;-86
2022/10/28 11:12:37;;;;;;;39.60;12.40;;;;;;;18.51;76.00;98817.47;103933;1307;24273;-87
2022/10/28 11:15:27;;;;;;;17.10;12.30;;;;;;;18.59;76.58;98813.73;103870;1307;22484;-87
2022/10/28 11:18:18;;;;;;;15.40;12.10;;;;;;;18.71;74.31;98809.77;103718;1299;22592;-85
2022/10/28 11:21:24;;;;;;;19.90;13.00;;;;;;;18.63;73.73;98807.55;103660;1307;24362;-84
2022/10/28 11:24:34;;;;;;;19.90;11.60;;;;;;;18.62;74.97;98811.02;103650;1307;22487;-85
2022/10/28 11:27:14;;;;;;;14.00;12.10;;;;;;;18.76;73.08;98808.50;103680;1316;24239;-83
2022/10/28 11:29:44;;;;;;;14.50;10.80;;;;;;;18.86;73.51;98810.91;103490;1315;240254;-84
2022/10/28 11:32:15;;;;;;;16.10;10.40;;;;;;;18.99;72.09;98811.95;103266;1317;22509;-84
2022/10/28 11:34:51;;;;;;;16.60;11.60;;;;;;;19.08;71.24;98813.46;103469;1315;22579;-84
2022/10/28 11:37:53;;;;;;;18.40;11.10;;;;;;;19.18;72.90;98806.64;104672;1315;22501;-84